Time;durP1;ratioP1;P1;durP2;ratioP2;P2;SDS_P1;SDS_P2;PMS_P1;PMS_P2;Temp;Humidity;BMP_temperature;BMP_pressure;BME280_temperature;BME280_humidity;BME280_pressure;Samples;Min_cycle;Max_cycle;Signal;HPM_P1;HPM_P2
2022/05/19 00:01:51;;;;;;;0.25;0.20;;;16.80;99.90;;;;;;5030020;28;20140;-65
2022/05/19 00:04:16;;;;;;;0.32;0.25;;;16.70;99.90;;;;;;5020232;28;20152;-65
2022/05/19 00:06:42;;;;;;;5.80;1.05;;;16.60;99.90;;;;;;5023439;28;20149;-65
2022/05/19 00:09:07;;;;;;;0.77;0.77;;;16.70;99.90;;;;;;5030315;28;20053;-66
2022/05/19 00:11:33;;;;;;;0.28;0.28;;;16.70;99.90;;;;;;5017177;28;20129;-65
2022/05/19 00:14:00;;;;;;;0.00;0.00;;;16.60;99.90;;;;;;5023490;28;20046;-66
2022/05/19 00:16:26;;;;;;;1.05;0.88;;;16.70;99.90;;;;;;5027436;28;20041;-66
2022/05/19 00:18:51;;;;;;;0.03;0.03;;;16.60;99.90;;;;;;5017277;28;20103;-65
2022/05/19 00:21:17;;;;;;;0.35;0.35;;;16.60;99.90;;;;;;5017204;28;20378;-65
2022/05/19 00:23:42;;;;;;;0.57;0.32;;;16.50;99.90;;;;;;5028191;28;20064;-66
2022/05/19 00:26:08;;;;;;;2.15;1.50;;;16.60;99.90;;;;;;5022845;28;20037;-65
2022/05/19 00:28:33;;;;;;;0.60;0.60;;;16.60;99.90;;;;;;5014615;28;20081;-65
2022/05/19 00:30:59;;;;;;;0.20;0.20;;;16.70;99.90;;;;;;5014787;28;20109;-65
2022/05/19 00:33:25;;;;;;;0.00;0.00;;;16.60;99.90;;;;;;5026788;28;20037;-65
2022/05/19 00:35:50;;;;;;;0.55;0.55;;;16.70;99.90;;;;;;5011762;28;20041;-66
2022/05/19 00:38:16;;;;;;;0.47;0.47;;;16.60;99.90;;;;;;5024634;28;20049;-65
2022/05/19 00:40:54;;;;;;;0.20;0.20;;;16.60;99.90;;;;;;5021926;28;20078;-66
2022/05/19 00:43:37;;;;;;;0.65;0.35;;;16.60;99.90;;;;;;5022051;28;20509;-65
2022/05/19 00:46:09;;;;;;;;;;;16.60;99.90;;;;;;5028274;28;20049;-66
2022/05/19 00:49:22;;;;;;;0.10;0.10;;;16.60;99.90;;;;;;5027609;28;19924;-65
2022/05/19 00:52:04;;;;;;;0.65;0.52;;;16.60;99.90;;;;;;4986671;28;20050;-66
2022/05/19 00:54:35;;;;;;;0.32;0.32;;;16.60;99.90;;;;;;5006531;28;20134;-65
2022/05/19 00:57:14;;;;;;;0.20;0.10;;;16.60;99.90;;;;;;5019270;28;20475;-65
2022/05/19 01:00:11;;;;;;;0.20;0.10;;;16.60;99.90;;;;;;5013783;28;20489;-65
2022/05/19 01:02:42;;;;;;;0.05;0.05;;;16.60;99.90;;;;;;5024918;28;20540;-65
2022/05/19 01:05:12;;;;;;;1.00;0.75;;;16.60;99.90;;;;;;5018828;28;20396;-65
2022/05/19 01:07:50;;;;;;;0.35;0.35;;;16.60;99.90;;;;;;5025994;28;20045;-65
2022/05/19 01:10:16;;;;;;;0.30;0.30;;;16.50;99.90;;;;;;5017278;28;20054;-65
2022/05/19 01:12:46;;;;;;;0.30;0.28;;;16.60;99.90;;;;;;5023740;28;20055;-65
2022/05/19 01:15:13;;;;;;;0.68;0.68;;;16.60;99.90;;;;;;5017099;28;20038;-65
2022/05/19 01:17:38;;;;;;;0.40;0.40;;;16.50;99.90;;;;;;5022790;28;20085;-65
2022/05/19 01:20:26;;;;;;;0.20;0.20;;;16.60;99.90;;;;;;5025216;28;20054;-65
2022/05/19 01:22:55;;;;;;;0.20;0.20;;;16.60;99.90;;;;;;5022209;28;20038;-65
2022/05/19 01:25:42;;;;;;;0.22;0.22;;;16.60;99.90;;;;;;5020210;28;20071;-65
2022/05/19 01:28:09;;;;;;;0.10;0.10;;;16.60;99.90;;;;;;5015037;28;20054;-65
2022/05/19 01:30:35;;;;;;;1.55;1.05;;;16.60;99.90;;;;;;5028530;28;20064;-65
2022/05/19 01:33:00;;;;;;;0.15;0.15;;;16.60;99.90;;;;;;5017210;28;20496;-65
2022/05/19 01:35:32;;;;;;;0.75;0.75;;;16.60;99.90;;;;;;5022277;28;20042;-65
2022/05/19 01:37:58;;;;;;;0.38;0.38;;;16.70;99.90;;;;;;5023693;28;20038;-65
2022/05/19 01:40:51;;;;;;;0.20;0.20;;;16.70;99.90;;;;;;5021599;28;20389;-65
2022/05/19 01:43:35;;;;;;;0.28;0.28;;;16.70;99.90;;;;;;5013830;28;20045;-65
2022/05/19 01:46:06;;;;;;;0.20;0.20;;;16.70;99.90;;;;;;5027676;28;20041;-65
2022/05/19 01:48:43;;;;;;;0.10;0.10;;;16.70;99.90;;;;;;5025662;28;20210;-65
2022/05/19 01:51:13;;;;;;;1.23;0.73;;;16.70;99.90;;;;;;5014057;28;20075;-65
2022/05/19 01:53:44;;;;;;;0.30;0.30;;;16.70;99.90;;;;;;5025427;28;20049;-65
2022/05/19 01:56:26;;;;;;;4.85;1.08;;;16.70;99.90;;;;;;5021943;28;20458;-65
2022/05/19 01:59:21;;;;;;;0.30;0.30;;;16.70;99.90;;;;;;5018862;28;20933;-65
2022/05/19 02:01:58;;;;;;;4.65;1.25;;;16.70;99.90;;;;;;5022212;28;20073;-65
2022/05/19 02:04:30;;;;;;;8.27;0.47;;;16.70;99.90;;;;;;5014554;28;20047;-65
2022/05/19 02:07:01;;;;;;;0.50;0.50;;;16.70;99.90;;;;;;5014082;28;20050;-65
2022/05/19 02:09:39;;;;;;;0.30;0.30;;;16.70;99.90;;;;;;5023302;28;20436;-65
2022/05/19 02:12:05;;;;;;;0.85;0.85;;;16.60;99.90;;;;;;5021859;28;20137;-65
2022/05/19 02:14:36;;;;;;;1.08;0.73;;;16.60;99.90;;;;;;5024039;28;20519;-65
2022/05/19 02:17:06;;;;;;;0.75;0.75;;;16.60;99.90;;;;;;5011584;28;20501;-65
2022/05/19 02:19:37;;;;;;;0.10;0.10;;;16.60;99.90;;;;;;5028227;28;20047;-65
2022/05/19 02:22:05;;;;;;;2.60;1.83;;;16.60;99.90;;;;;;5025322;28;20045;-65
2022/05/19 02:24:36;;;;;;;1.10;1.05;;;16.70;99.90;;;;;;5013351;28;20042;-65
2022/05/19 02:27:34;;;;;;;0.82;0.80;;;16.60;99.90;;;;;;5014546;28;20058;-65
2022/05/19 02:30:02;;;;;;;2.05;0.50;;;16.70;99.90;;;;;;5010049;28;20049;-65
2022/05/19 02:32:28;;;;;;;0.10;0.10;;;16.70;99.90;;;;;;5028073;28;20140;-65
2022/05/19 02:34:54;;;;;;;0.40;0.40;;;16.70;99.90;;;;;;5017598;28;20145;-65
2022/05/19 02:37:19;;;;;;;0.20;0.20;;;16.70;99.90;;;;;;5021524;28;20057;-65
2022/05/19 02:39:45;;;;;;;6.22;0.88;;;16.70;99.90;;;;;;5027108;28;20405;-65
2022/05/19 02:42:10;;;;;;;0.43;0.43;;;16.80;99.90;;;;;;5019886;28;20042;-65
2022/05/19 02:44:36;;;;;;;0.10;0.10;;;16.80;99.90;;;;;;5013654;28;20038;-65
2022/05/19 02:47:02;;;;;;;0.22;0.22;;;16.80;99.90;;;;;;5020585;28;20064;-65
2022/05/19 02:49:28;;;;;;;0.75;0.52;;;16.80;99.90;;;;;;5021873;28;20132;-65
2022/05/19 02:51:53;;;;;;;0.10;0.10;;;16.80;99.90;;;;;;5021405;28;20076;-66
2022/05/19 02:54:21;;;;;;;2.08;0.63;;;16.80;99.90;;;;;;5022143;28;20112;-65
2022/05/19 02:56:49;;;;;;;0.47;0.47;;;16.80;99.90;;;;;;5026901;28;20041;-65
2022/05/19 02:59:15;;;;;;;0.75;0.75;;;16.80;99.90;;;;;;5020755;28;20045;-65
2022/05/19 03:01:41;;;;;;;0.10;0.10;;;16.90;99.90;;;;;;5010991;28;20042;-65
2022/05/19 03:04:07;;;;;;;0.20;0.20;;;16.90;99.90;;;;;;5015483;28;20367;-65
2022/05/19 03:06:33;;;;;;;0.22;0.22;;;16.90;99.90;;;;;;5023708;28;20045;-66
2022/05/19 03:08:59;;;;;;;0.00;0.00;;;16.90;99.90;;;;;;5020218;28;20052;-66
2022/05/19 03:11:25;;;;;;;0.52;0.50;;;16.90;99.90;;;;;;5013751;28;20405;-66
2022/05/19 03:13:50;;;;;;;0.40;0.40;;;16.90;99.90;;;;;;5018880;28;20049;-66
2022/05/19 03:16:16;;;;;;;0.63;0.63;;;16.90;99.90;;;;;;5020850;28;20849;-66
2022/05/19 03:18:41;;;;;;;0.20;0.20;;;16.90;99.90;;;;;;5012259;28;20092;-66
2022/05/19 03:21:07;;;;;;;0.75;0.75;;;16.90;99.90;;;;;;5017034;28;20069;-66
2022/05/19 03:23:33;;;;;;;0.57;0.57;;;16.90;99.90;;;;;;5022661;28;20041;-66
2022/05/19 03:25:59;;;;;;;0.50;0.50;;;16.90;99.90;;;;;;5015540;28;20118;-66
2022/05/19 03:28:24;;;;;;;0.10;0.10;;;16.90;99.90;;;;;;5019023;28;20045;-66
2022/05/19 03:30:50;;;;;;;0.22;0.22;;;16.90;99.90;;;;;;5017885;28;20055;-66
2022/05/19 03:33:15;;;;;;;1.83;0.85;;;16.90;99.90;;;;;;5011146;28;20081;-66
2022/05/19 03:35:42;;;;;;;0.65;0.65;;;16.90;99.90;;;;;;5023620;28;20768;-66
2022/05/19 03:38:08;;;;;;;0.45;0.45;;;16.90;99.90;;;;;;5018139;28;20045;-66
2022/05/19 03:40:34;;;;;;;0.30;0.30;;;16.90;99.90;;;;;;5023350;28;20099;-65
2022/05/19 03:42:59;;;;;;;0.77;0.77;;;16.90;99.90;;;;;;5010671;28;20046;-66
2022/05/19 03:45:25;;;;;;;0.10;0.10;;;16.90;99.90;;;;;;5021399;28;20041;-66
2022/05/19 03:47:51;;;;;;;0.60;0.60;;;17.00;99.90;;;;;;5027092;28;20034;-66
2022/05/19 03:50:17;;;;;;;2.30;1.38;;;17.00;99.90;;;;;;5019055;28;20046;-66
2022/05/19 03:52:43;;;;;;;0.55;0.50;;;16.90;99.90;;;;;;5020945;28;20052;-66
2022/05/19 03:55:10;;;;;;;0.25;0.25;;;16.90;99.90;;;;;;5022955;28;20034;-66
2022/05/19 03:57:36;;;;;;;0.88;0.82;;;17.00;99.90;;;;;;5022283;28;20041;-66
2022/05/19 04:00:03;;;;;;;0.65;0.65;;;17.00;99.90;;;;;;5020611;28;20056;-66
2022/05/19 04:02:28;;;;;;;0.55;0.47;;;17.00;99.90;;;;;;5026498;28;20059;-66
2022/05/19 04:04:54;;;;;;;0.43;0.43;;;17.00;99.90;;;;;;5025189;28;20111;-66
2022/05/19 04:07:19;;;;;;;0.52;0.52;;;17.00;99.90;;;;;;5019506;28;20034;-65
2022/05/19 04:09:45;;;;;;;2.40;0.52;;;17.10;99.90;;;;;;5026028;28;20424;-66
2022/05/19 04:12:11;;;;;;;0.82;0.38;;;17.10;99.90;;;;;;5015929;28;20057;-66
2022/05/19 04:14:36;;;;;;;1.00;1.00;;;17.10;99.90;;;;;;5021555;28;20053;-66
2022/05/19 04:17:02;;;;;;;2.90;0.70;;;17.10;99.90;;;;;;5025965;28;20053;-66
2022/05/19 04:19:28;;;;;;;1.58;1.48;;;17.10;99.90;;;;;;5025857;28;20052;-66
2022/05/19 04:21:54;;;;;;;2.63;0.82;;;17.10;99.90;;;;;;5019664;28;20049;-66
2022/05/19 04:24:19;;;;;;;0.00;0.00;;;17.20;99.90;;;;;;5008477;28;20545;-66
2022/05/19 04:26:45;;;;;;;0.57;0.57;;;17.20;99.90;;;;;;5022477;28;20084;-66
2022/05/19 04:29:10;;;;;;;1.08;1.00;;;17.20;99.90;;;;;;5014554;28;20085;-66
2022/05/19 04:31:36;;;;;;;0.40;0.40;;;17.10;99.90;;;;;;5018247;28;20160;-67
2022/05/19 04:34:04;;;;;;;1.63;1.52;;;17.20;99.90;;;;;;5011534;28;20451;-67
2022/05/19 04:36:30;;;;;;;0.63;0.63;;;17.20;99.90;;;;;;5016792;28;20084;-66
2022/05/19 04:38:56;;;;;;;1.95;1.02;;;17.20;99.90;;;;;;5029665;28;20053;-66
2022/05/19 04:41:21;;;;;;;0.80;0.80;;;17.20;99.90;;;;;;5018653;28;20045;-67
2022/05/19 04:43:47;;;;;;;0.90;0.90;;;17.20;99.90;;;;;;5019244;28;20611;-66
2022/05/19 04:46:12;;;;;;;0.43;0.43;;;17.20;99.90;;;;;;5026433;28;20481;-66
2022/05/19 04:48:38;;;;;;;0.57;0.57;;;17.20;99.90;;;;;;5023464;28;20547;-67
2022/05/19 04:51:04;;;;;;;1.27;0.82;;;17.30;99.90;;;;;;5029124;28;20401;-67
2022/05/19 04:53:30;;;;;;;0.30;0.30;;;17.30;99.90;;;;;;5024377;28;20485;-66
2022/05/19 04:55:56;;;;;;;0.52;0.52;;;17.30;99.90;;;;;;5023950;28;20536;-66
2022/05/19 04:58:22;;;;;;;0.32;0.32;;;17.40;99.90;;;;;;5017485;28;20041;-66
2022/05/19 05:00:49;;;;;;;0.73;0.47;;;17.40;99.90;;;;;;5016114;28;20524;-66
2022/05/19 05:03:15;;;;;;;5.25;2.72;;;17.50;99.90;;;;;;5012995;28;20590;-67
2022/05/19 05:05:41;;;;;;;0.10;0.10;;;17.40;99.90;;;;;;5024306;28;20071;-67
2022/05/19 05:08:06;;;;;;;0.63;0.60;;;17.40;99.90;;;;;;5016803;28;20037;-67
2022/05/19 05:10:32;;;;;;;0.30;0.30;;;17.40;99.90;;;;;;5024928;28;20049;-67
2022/05/19 05:13:04;;;;;;;1.00;0.57;;;17.40;99.90;;;;;;5024209;28;20052;-67
2022/05/19 05:15:30;;;;;;;9.65;1.08;;;17.40;99.90;;;;;;5023664;28;20057;-67
2022/05/19 05:17:55;;;;;;;1.75;1.55;;;17.40;99.90;;;;;;5012818;28;20037;-67
2022/05/19 05:20:21;;;;;;;0.63;0.63;;;17.40;99.90;;;;;;5026431;28;20037;-67
2022/05/19 05:22:47;;;;;;;0.50;0.50;;;17.40;99.90;;;;;;5024279;28;20049;-67
2022/05/19 05:25:15;;;;;;;0.75;0.75;;;17.40;99.90;;;;;;5023873;28;20120;-67
2022/05/19 05:27:40;;;;;;;1.33;0.85;;;17.40;99.90;;;;;;5017212;28;20053;-67
2022/05/19 05:30:07;;;;;;;0.30;0.30;;;17.40;99.90;;;;;;5021993;28;20083;-67
2022/05/19 05:32:34;;;;;;;2.08;1.27;;;17.50;99.90;;;;;;5018013;28;20045;-67
2022/05/19 05:34:59;;;;;;;0.03;0.03;;;17.50;99.90;;;;;;5024004;28;20436;-67
2022/05/19 05:37:25;;;;;;;0.00;0.00;;;17.60;99.90;;;;;;5020937;28;20046;-67
2022/05/19 05:39:51;;;;;;;0.30;0.30;;;17.60;99.90;;;;;;5028060;28;20512;-67
2022/05/19 05:42:16;;;;;;;2.38;1.08;;;17.60;99.90;;;;;;5023830;28;20033;-67
2022/05/19 05:44:42;;;;;;;0.47;0.47;;;17.60;99.90;;;;;;5014545;28;20412;-67
2022/05/19 05:47:07;;;;;;;0.43;0.43;;;17.60;99.90;;;;;;5023212;28;20497;-67
2022/05/19 05:49:33;;;;;;;0.47;0.47;;;17.50;99.90;;;;;;5022257;28;20715;-67
2022/05/19 05:51:59;;;;;;;1.55;1.27;;;17.60;99.90;;;;;;5013922;28;20485;-66
2022/05/19 05:54:24;;;;;;;0.68;0.68;;;17.60;99.90;;;;;;5014786;28;20045;-66
2022/05/19 05:56:52;;;;;;;0.30;0.30;;;17.60;99.90;;;;;;5027419;28;20041;-66
2022/05/19 05:59:18;;;;;;;0.52;0.52;;;17.70;99.90;;;;;;5018739;28;22358;-66
2022/05/19 06:01:43;;;;;;;0.20;0.20;;;17.70;99.90;;;;;;5024322;28;20052;-66
2022/05/19 06:04:09;;;;;;;0.20;0.20;;;17.70;99.90;;;;;;5030098;28;20057;-66
2022/05/19 06:06:34;;;;;;;12.70;1.25;;;17.70;99.90;;;;;;5015733;28;20497;-66
2022/05/19 06:09:00;;;;;;;0.40;0.40;;;17.70;99.90;;;;;;5024458;28;20112;-66
2022/05/19 06:11:27;;;;;;;1.17;0.75;;;17.70;99.90;;;;;;5026625;28;20502;-66
2022/05/19 06:13:53;;;;;;;11.00;3.78;;;17.70;99.90;;;;;;5023812;28;20077;-66
2022/05/19 06:16:19;;;;;;;10.57;0.60;;;17.70;99.90;;;;;;5013131;28;20083;-67
2022/05/19 06:18:44;;;;;;;0.43;0.43;;;17.80;99.90;;;;;;5010694;28;20085;-66
2022/05/19 06:21:10;;;;;;;6.78;0.90;;;17.80;99.90;;;;;;5008214;28;20038;-66
2022/05/19 06:23:36;;;;;;;4.38;1.45;;;17.80;99.90;;;;;;5012803;28;20045;-67
2022/05/19 06:26:02;;;;;;;0.68;0.57;;;17.80;99.90;;;;;;5023905;28;20049;-67
2022/05/19 06:28:28;;;;;;;3.70;0.70;;;17.80;99.90;;;;;;5028925;28;20050;-67
2022/05/19 06:30:54;;;;;;;2.40;1.27;;;17.80;99.90;;;;;;5011106;28;20044;-67
2022/05/19 06:33:22;;;;;;;0.40;0.40;;;17.80;99.90;;;;;;5020897;28;20092;-66
2022/05/19 06:35:48;;;;;;;0.20;0.20;;;17.90;99.90;;;;;;5014222;28;20485;-66
2022/05/19 06:38:14;;;;;;;0.10;0.10;;;17.90;99.90;;;;;;5009185;28;20048;-66
2022/05/19 06:40:40;;;;;;;1.55;1.33;;;17.90;99.90;;;;;;5012377;28;20068;-67
2022/05/19 06:43:10;;;;;;;0.70;0.50;;;18.00;99.90;;;;;;5020651;28;20728;-67
2022/05/19 06:45:36;;;;;;;0.30;0.25;;;18.00;99.90;;;;;;5007918;28;20512;-67
2022/05/19 06:48:02;;;;;;;0.38;0.38;;;18.00;99.90;;;;;;5011419;28;20048;-67
2022/05/19 06:50:28;;;;;;;0.88;0.80;;;18.00;99.90;;;;;;5008789;28;20124;-66
2022/05/19 06:52:59;;;;;;;0.52;0.52;;;18.00;99.90;;;;;;5010909;28;20158;-67
2022/05/19 06:55:26;;;;;;;0.30;0.30;;;18.00;99.90;;;;;;5022003;28;20128;-67
2022/05/19 06:57:52;;;;;;;0.10;0.10;;;18.00;99.90;;;;;;5018919;28;20456;-66
2022/05/19 07:00:22;;;;;;;4.20;1.60;;;18.00;99.90;;;;;;5008301;28;20065;-67
2022/05/19 07:02:52;;;;;;;0.45;0.17;;;18.10;99.90;;;;;;5015278;28;20543;-67
2022/05/19 07:05:20;;;;;;;3.70;0.73;;;18.10;99.90;;;;;;5028550;28;20052;-67
2022/05/19 07:07:46;;;;;;;0.35;0.35;;;18.00;99.90;;;;;;5014077;28;20069;-67
2022/05/19 07:10:15;;;;;;;0.52;0.52;;;18.10;99.90;;;;;;5008278;28;20120;-67
2022/05/19 07:12:40;;;;;;;0.28;0.28;;;18.10;99.90;;;;;;5008840;28;20064;-66
2022/05/19 07:15:06;;;;;;;1.40;0.95;;;18.10;99.90;;;;;;5013288;28;20645;-67
2022/05/19 07:17:32;;;;;;;0.70;0.65;;;18.10;99.90;;;;;;5012695;28;20037;-66
2022/05/19 07:22:42;;;;;;;0.30;0.30;;;18.30;99.90;;;;;;5022861;28;20053;-67
2022/05/19 07:25:10;;;;;;;20.50;1.35;;;18.40;99.90;;;;;;5012750;28;20042;-67
2022/05/19 07:27:36;;;;;;;0.82;0.60;;;18.50;99.90;;;;;;5008292;28;20065;-67
2022/05/19 07:30:02;;;;;;;0.15;0.15;;;18.40;99.90;;;;;;5008038;28;20038;-66
2022/05/19 07:32:28;;;;;;;0.20;0.20;;;18.40;99.90;;;;;;5007597;28;20533;-67
2022/05/19 07:34:57;;;;;;;0.80;0.80;;;18.40;99.90;;;;;;5008260;28;20054;-67
2022/05/19 07:37:24;;;;;;;0.10;0.10;;;18.50;99.90;;;;;;5007134;28;20046;-67
2022/05/19 07:39:51;;;;;;;0.10;0.10;;;18.50;99.90;;;;;;5017171;28;20046;-67
2022/05/19 07:42:17;;;;;;;2.17;0.57;;;18.50;99.90;;;;;;5006661;28;20394;-67
2022/05/19 07:44:42;;;;;;;0.15;0.15;;;18.50;99.90;;;;;;5007708;28;20042;-67
2022/05/19 07:47:08;;;;;;;0.47;0.43;;;18.50;99.90;;;;;;5009599;28;20042;-66
2022/05/19 07:49:34;;;;;;;0.20;0.20;;;18.50;99.90;;;;;;5022415;28;20115;-66
2022/05/19 07:52:00;;;;;;;0.38;0.38;;;18.50;99.90;;;;;;5025673;28;20056;-66
2022/05/19 07:54:27;;;;;;;0.28;0.28;;;18.50;99.90;;;;;;5019058;28;20049;-67
2022/05/19 07:56:54;;;;;;;1.10;0.30;;;18.60;99.90;;;;;;5007663;28;20041;-66
2022/05/19 07:59:20;;;;;;;0.10;0.10;;;18.70;99.90;;;;;;5010828;28;20060;-67
2022/05/19 08:01:47;;;;;;;0.55;0.55;;;18.60;99.90;;;;;;5016734;28;20050;-67
2022/05/19 08:04:15;;;;;;;0.20;0.20;;;18.70;99.90;;;;;;5014553;28;20417;-66
2022/05/19 08:06:41;;;;;;;0.20;0.13;;;18.70;99.90;;;;;;5016481;28;20048;-67
2022/05/19 08:11:54;;;;;;;0.43;0.43;;;18.70;99.90;;;;;;5010377;28;20053;-67
2022/05/19 08:17:07;;;;;;;0.40;0.40;;;18.60;99.90;;;;;;5030734;28;20089;-67
2022/05/19 08:19:33;;;;;;;0.15;0.15;;;18.70;99.90;;;;;;5019264;28;20045;-67
2022/05/19 08:21:58;;;;;;;1.45;0.63;;;18.70;99.90;;;;;;5014366;28;20041;-67
2022/05/19 08:24:25;;;;;;;0.20;0.20;;;18.70;99.90;;;;;;5026962;28;20073;-67
2022/05/19 08:26:51;;;;;;;10.05;0.63;;;18.80;99.90;;;;;;5030634;28;20045;-67
2022/05/19 08:29:19;;;;;;;0.35;0.35;;;18.80;99.90;;;;;;5022626;28;20057;-67
2022/05/19 08:31:48;;;;;;;1.85;0.50;;;18.80;99.90;;;;;;5011750;28;20048;-67
2022/05/19 08:34:14;;;;;;;0.00;0.00;;;18.90;99.90;;;;;;5026475;28;20045;-67
2022/05/19 08:36:44;;;;;;;0.10;0.10;;;18.90;99.90;;;;;;5016592;28;20069;-67
2022/05/19 08:39:10;;;;;;;0.40;0.40;;;18.90;99.90;;;;;;5017868;28;20113;-67
2022/05/19 08:42:03;;;;;;;0.30;0.30;;;18.90;99.90;;;;;;5010485;28;20069;-67
2022/05/19 08:44:34;;;;;;;0.10;0.10;;;18.90;99.90;;;;;;5025611;28;20073;-67
2022/05/19 08:47:02;;;;;;;0.15;0.15;;;18.90;99.90;;;;;;5013503;28;20304;-67
2022/05/19 08:50:01;;;;;;;0.30;0.30;;;18.90;99.90;;;;;;5016479;28;20045;-67
2022/05/19 08:52:43;;;;;;;0.15;0.15;;;19.00;99.90;;;;;;5026102;28;20045;-67
2022/05/19 08:55:13;;;;;;;0.75;0.75;;;19.10;99.90;;;;;;5015521;28;20046;-67
2022/05/19 08:58:05;;;;;;;1.42;0.98;;;19.10;99.90;;;;;;5019424;28;20037;-66
2022/05/19 09:00:51;;;;;;;0.22;0.20;;;19.10;99.90;;;;;;5023214;28;20061;-67
2022/05/19 09:03:43;;;;;;;0.85;0.80;;;19.20;99.90;;;;;;5009784;28;20478;-67
2022/05/19 09:10:11;;;;;;;1.20;0.68;;;19.20;99.90;;;;;;5026458;28;20493;-67
2022/05/19 09:12:39;;;;;;;0.20;0.20;;;19.10;99.90;;;;;;5006678;28;20049;-67
2022/05/19 09:15:07;;;;;;;1.02;0.50;;;19.10;99.90;;;;;;5014757;28;20058;-67
2022/05/19 09:17:38;;;;;;;0.00;0.00;;;19.10;99.90;;;;;;5026521;28;20052;-67
2022/05/19 09:20:19;;;;;;;0.35;0.35;;;19.30;99.90;;;;;;5030475;28;20052;-67
2022/05/19 09:22:44;;;;;;;0.65;0.65;;;19.40;99.90;;;;;;5026875;28;20602;-67
2022/05/19 09:25:15;;;;;;;5.63;1.50;;;19.40;99.90;;;;;;5030202;28;20049;-67
2022/05/19 09:27:43;;;;;;;1.38;0.73;;;19.40;99.90;;;;;;5013225;28;20053;-67
2022/05/19 09:30:34;;;;;;;0.85;0.65;;;19.50;99.90;;;;;;5009994;28;20457;-67
2022/05/19 09:33:06;;;;;;;0.50;0.50;;;19.70;99.90;;;;;;5011383;28;20062;-66
2022/05/19 09:35:43;;;;;;;0.93;0.93;;;19.80;99.90;;;;;;5014373;28;20056;-67
2022/05/19 09:38:25;;;;;;;0.88;0.85;;;20.00;99.90;;;;;;5029094;28;20511;-67
2022/05/19 09:40:58;;;;;;;1.25;0.43;;;20.10;99.90;;;;;;5025922;28;20132;-66
2022/05/19 09:43:32;;;;;;;0.65;0.65;;;20.20;99.90;;;;;;5022202;28;20141;-67
2022/05/19 09:46:07;;;;;;;0.40;0.40;;;20.20;99.90;;;;;;5021943;28;20038;-66
2022/05/19 09:48:35;;;;;;;0.47;0.47;;;20.00;99.90;;;;;;5015880;28;20072;-66
2022/05/19 09:51:10;;;;;;;1.33;1.23;;;20.00;99.90;;;;;;5008295;28;20478;-66
2022/05/19 09:53:40;;;;;;;0.90;0.90;;;20.00;99.90;;;;;;5015187;28;20492;-67
2022/05/19 09:56:15;;;;;;;0.40;0.40;;;19.90;99.90;;;;;;5029743;28;20046;-67
2022/05/19 09:58:44;;;;;;;0.35;0.35;;;20.20;99.90;;;;;;5025623;28;20060;-67
2022/05/19 10:01:25;;;;;;;0.38;0.38;;;20.20;99.90;;;;;;5019348;28;20065;-67
2022/05/19 10:04:01;;;;;;;1.02;0.93;;;20.30;99.90;;;;;;5013768;28;20493;-67
2022/05/19 10:06:46;;;;;;;9.93;1.88;;;20.30;99.90;;;;;;5010035;28;20053;-67
2022/05/19 10:09:15;;;;;;;0.38;0.38;;;20.70;99.90;;;;;;5026719;28;20051;-68
2022/05/19 10:11:49;;;;;;;0.32;0.25;;;21.30;99.90;;;;;;5021920;28;20136;-67
2022/05/19 10:14:29;;;;;;;0.85;0.68;;;21.80;99.90;;;;;;5013469;28;20504;-67
2022/05/19 10:17:18;;;;;;;0.77;0.77;;;22.20;99.90;;;;;;5021170;28;20061;-67
2022/05/19 10:20:06;;;;;;;2.80;0.80;;;22.60;99.90;;;;;;5027326;28;20049;-67
2022/05/19 10:22:34;;;;;;;1.63;1.52;;;22.70;99.90;;;;;;5017068;28;20136;-68
2022/05/19 10:25:38;;;;;;;11.00;3.58;;;22.80;99.90;;;;;;5027237;28;20041;-67
2022/05/19 10:31:25;;;;;;;0.85;0.65;;;22.50;99.90;;;;;;5007847;28;20147;-68
2022/05/19 10:33:57;;;;;;;0.20;0.13;;;22.50;99.90;;;;;;5009938;28;20080;-67
2022/05/19 10:36:50;;;;;;;0.22;0.22;;;22.40;99.90;;;;;;5023218;28;20416;-67
2022/05/19 10:40:10;;;;;;;0.10;0.10;;;22.40;99.90;;;;;;5012518;28;20046;-67
2022/05/19 10:42:38;;;;;;;1.95;1.05;;;22.30;99.90;;;;;;5024110;28;20080;-67
2022/05/19 10:45:32;;;;;;;1.67;0.47;;;22.30;99.90;;;;;;5022456;28;20330;-67
2022/05/19 10:47:58;;;;;;;0.98;0.90;;;22.30;99.90;;;;;;5007383;28;20405;-66
2022/05/19 10:50:29;;;;;;;0.43;0.43;;;22.40;99.90;;;;;;5008549;28;20045;-66
2022/05/19 10:53:21;;;;;;;0.32;0.30;;;22.50;99.90;;;;;;5018525;28;20050;-66
2022/05/19 10:56:17;;;;;;;2.00;1.80;;;22.90;99.90;;;;;;5017462;28;20141;-66
2022/05/19 10:59:04;;;;;;;0.10;0.10;;;23.10;99.90;;;;;;5009714;28;20048;-66
2022/05/19 11:01:47;;;;;;;0.17;0.15;;;23.30;99.90;;;;;;5009391;28;20053;-66
2022/05/19 11:04:47;;;;;;;1.90;1.13;;;23.50;99.90;;;;;;5007826;28;20501;-66
2022/05/19 11:07:19;;;;;;;0.17;0.17;;;23.70;99.90;;;;;;5011585;28;20073;-66
2022/05/19 11:10:16;;;;;;;0.20;0.20;;;24.10;99.90;;;;;;5012441;28;20527;-66
2022/05/19 11:13:03;;;;;;;0.10;0.10;;;23.90;99.90;;;;;;5022959;28;20048;-66
2022/05/19 11:15:56;;;;;;;0.30;0.22;;;23.70;99.90;;;;;;5014473;28;20054;-66
2022/05/19 11:18:38;;;;;;;0.00;0.00;;;23.40;99.90;;;;;;5008513;28;20456;-66
2022/05/19 11:21:31;;;;;;;0.30;0.30;;;23.20;99.90;;;;;;5010454;28;20056;-66
2022/05/19 11:24:24;;;;;;;9.95;2.33;;;23.00;99.90;;;;;;5009233;28;20042;-66
2022/05/19 11:27:19;;;;;;;2.00;0.88;;;22.80;99.90;;;;;;5023593;28;20050;-66
2022/05/19 11:29:53;;;;;;;0.20;0.20;;;22.60;99.90;;;;;;5027518;28;20242;-66
2022/05/19 11:32:24;;;;;;;0.95;0.63;;;22.40;99.90;;;;;;5016954;28;20095;-66
2022/05/19 11:35:20;;;;;;;5.25;0.50;;;22.30;99.90;;;;;;5008046;28;20038;-66
2022/05/19 11:37:52;;;;;;;0.10;0.10;;;22.10;99.90;;;;;;5023869;28;20497;-66
2022/05/19 11:40:30;;;;;;;0.43;0.22;;;22.00;99.90;;;;;;5011219;28;20045;-66
2022/05/19 11:43:23;;;;;;;0.10;0.10;;;21.80;99.90;;;;;;5013264;28;20049;-66
2022/05/19 11:46:02;;;;;;;0.30;0.20;;;21.60;99.90;;;;;;5016652;28;20052;-66
2022/05/19 11:58:01;;;;;;;0.15;0.10;;;20.90;99.90;;;;;;5028525;28;20144;-66
2022/05/19 12:00:35;;;;;;;0.10;0.10;;;20.70;99.90;;;;;;5022591;28;20062;-66
2022/05/19 12:03:02;;;;;;;1.00;0.47;;;20.60;99.90;;;;;;5021128;28;20478;-66
2022/05/19 12:05:28;;;;;;;0.30;0.30;;;20.70;99.90;;;;;;5029420;28;20096;-66
2022/05/19 12:08:00;;;;;;;0.43;0.30;;;20.60;99.90;;;;;;5017071;28;20049;-65
2022/05/19 12:10:34;;;;;;;4.68;1.48;;;20.50;99.90;;;;;;5010838;28;20050;-66
2022/05/19 12:13:00;;;;;;;0.75;0.30;;;20.40;99.90;;;;;;5012129;28;20050;-66
2022/05/19 12:15:35;;;;;;;0.75;0.75;;;20.40;99.90;;;;;;5027722;28;20110;-66
2022/05/19 12:18:22;;;;;;;0.52;0.43;;;20.20;99.90;;;;;;5030813;28;20570;-66
2022/05/19 12:21:00;;;;;;;0.85;0.85;;;20.00;99.90;;;;;;5012116;28;20056;-66
2022/05/19 12:23:51;;;;;;;0.60;0.60;;;19.80;99.90;;;;;;5015790;28;20428;-66
2022/05/19 12:26:19;;;;;;;0.80;0.80;;;19.60;99.90;;;;;;5017332;28;20191;-66
2022/05/19 12:29:11;;;;;;;6.15;1.15;;;19.40;99.90;;;;;;5010627;28;20103;-66
2022/05/19 12:31:57;;;;;;;0.10;0.10;;;19.30;99.90;;;;;;5022903;28;20046;-67
2022/05/19 12:34:26;;;;;;;0.00;0.00;;;19.30;99.90;;;;;;5018087;28;20464;-67
2022/05/19 12:37:12;;;;;;;0.10;0.10;;;19.30;99.90;;;;;;5012627;28;20049;-67
2022/05/19 12:39:49;;;;;;;3.00;0.35;;;19.30;99.90;;;;;;5016006;28;20111;-67
2022/05/19 12:42:24;;;;;;;0.00;0.00;;;19.30;99.90;;;;;;5028090;28;20091;-67
2022/05/19 12:44:51;;;;;;;0.22;0.22;;;19.30;99.90;;;;;;5014934;28;20508;-65
2022/05/19 12:47:30;;;;;;;0.00;0.00;;;19.30;99.90;;;;;;5023235;28;20080;-66
2022/05/19 12:50:03;;;;;;;0.00;0.00;;;19.30;99.90;;;;;;5019698;28;20672;-66
2022/05/19 12:53:10;;;;;;;0.43;0.30;;;19.30;99.90;;;;;;5014321;28;20037;-67
2022/05/19 12:55:36;;;;;;;0.43;0.43;;;19.30;99.90;;;;;;5023909;28;20060;-66
2022/05/19 12:58:33;;;;;;;0.00;0.00;;;19.30;99.90;;;;;;5025913;28;20049;-67
2022/05/19 13:01:26;;;;;;;0.30;0.30;;;19.30;99.90;;;;;;5023048;28;20053;-66
2022/05/19 13:04:01;;;;;;;0.00;0.00;;;19.30;99.90;;;;;;5030560;28;20049;-66
2022/05/19 13:06:27;;;;;;;0.00;0.00;;;19.30;99.90;;;;;;5022760;28;20046;-66
2022/05/19 13:08:54;;;;;;;0.00;0.00;;;19.30;99.90;;;;;;5020313;28;20056;-65
2022/05/19 13:11:31;;;;;;;0.10;0.10;;;19.20;99.90;;;;;;5020342;28;20470;-66
2022/05/19 13:14:01;;;;;;;0.40;0.40;;;19.20;99.90;;;;;;5023313;28;20049;-66
2022/05/19 13:16:30;;;;;;;0.00;0.00;;;19.20;99.90;;;;;;5028040;28;20041;-66
2022/05/19 13:19:00;;;;;;;0.00;0.00;;;19.20;99.90;;;;;;5018489;28;20050;-66
2022/05/19 13:21:52;;;;;;;0.00;0.00;;;19.10;99.90;;;;;;5019999;28;20049;-65
2022/05/19 13:24:19;;;;;;;0.30;0.30;;;19.00;99.90;;;;;;5024405;28;20069;-66
2022/05/19 13:26:46;;;;;;;0.15;0.05;;;19.00;99.90;;;;;;5020196;28;20053;-65
2022/05/19 13:32:07;;;;;;;0.05;0.05;;;19.00;99.90;;;;;;5017975;28;20052;-66
2022/05/19 13:34:48;;;;;;;0.00;0.00;;;19.00;99.90;;;;;;5009910;28;20578;-66
2022/05/19 13:37:31;;;;;;;0.50;0.50;;;19.00;99.90;;;;;;5014323;28;20096;-66
2022/05/19 13:40:15;;;;;;;;;;;19.00;99.90;;;;;;5013115;28;20049;-66